createdAt,value
2022-12-04T00:02:09.340Z,3.40
2022-12-04T00:04:37.787Z,3.41
2022-12-04T00:07:06.461Z,3.39
2022-12-04T00:09:35.194Z,3.39
2022-12-04T00:12:05.376Z,3.40
2022-12-04T00:14:34.501Z,3.31
2022-12-04T00:17:04.119Z,3.38
2022-12-04T00:19:33.954Z,3.43
2022-12-04T00:22:02.409Z,3.44
2022-12-04T00:24:30.958Z,3.50
2022-12-04T00:26:59.829Z,3.49
2022-12-04T00:29:28.311Z,3.50
2022-12-04T00:31:56.923Z,3.50
2022-12-04T00:34:25.327Z,3.46
2022-12-04T00:36:55.179Z,3.50
2022-12-04T00:39:23.573Z,3.46
2022-12-04T00:41:51.941Z,3.44
2022-12-04T00:44:20.356Z,3.38
2022-12-04T00:46:48.945Z,3.36
2022-12-04T00:49:17.387Z,3.39
2022-12-04T00:51:46.183Z,3.40
2022-12-04T00:54:16.024Z,3.40
2022-12-04T00:56:44.572Z,3.44
2022-12-04T00:59:13.637Z,3.45
2022-12-04T01:01:42.935Z,3.51
2022-12-04T01:04:11.406Z,3.52
2022-12-04T01:06:39.883Z,3.51
2022-12-04T01:09:08.391Z,3.45
2022-12-04T01:11:38.568Z,3.42
2022-12-04T01:14:06.996Z,3.33
2022-12-04T01:16:38.211Z,3.29
2022-12-04T01:19:09.108Z,3.24
2022-12-04T01:21:37.837Z,3.21
2022-12-04T01:24:06.822Z,3.24
2022-12-04T01:26:35.329Z,3.28
2022-12-04T01:29:05.746Z,3.31
2022-12-04T01:32:11.521Z,3.30
2022-12-04T01:34:40.155Z,3.34
2022-12-04T01:37:08.921Z,3.37
2022-12-04T01:39:37.964Z,3.38
2022-12-04T01:42:07.255Z,3.40
2022-12-04T01:44:37.033Z,3.40
2022-12-04T01:47:05.895Z,3.41
2022-12-04T01:49:39.547Z,3.43
2022-12-04T01:52:12.644Z,3.43
2022-12-04T01:54:45.528Z,3.43
2022-12-04T01:57:16.739Z,3.42
2022-12-04T01:59:51.589Z,3.39
2022-12-04T02:02:26.347Z,3.36
2022-12-04T02:04:55.830Z,3.38
2022-12-04T02:07:24.661Z,3.26
2022-12-04T02:09:56.432Z,3.35
2022-12-04T02:12:33.068Z,3.31
2022-12-04T02:15:10.442Z,3.29
2022-12-04T02:17:45.568Z,3.28
2022-12-04T02:20:24.041Z,3.19
2022-12-04T02:23:38.899Z,3.26
2022-12-04T02:26:21.013Z,3.25
2022-12-04T02:28:56.927Z,3.09
2022-12-04T02:31:32.816Z,3.19
2022-12-04T02:34:04.375Z,3.21
2022-12-04T02:36:37.881Z,3.19
2022-12-04T02:39:11.467Z,3.11
2022-12-04T02:41:45.115Z,3.16
2022-12-04T02:44:23.709Z,3.14
2022-12-04T02:46:57.757Z,3.14
2022-12-04T02:49:32.265Z,3.13
2022-12-04T02:52:02.336Z,3.12
2022-12-04T02:54:35.518Z,3.11
2022-12-04T02:57:07.581Z,3.10
2022-12-04T02:59:42.458Z,3.08
2022-12-04T03:02:16.212Z,3.07
2022-12-04T03:04:50.971Z,3.04
2022-12-04T03:07:26.651Z,3.04
2022-12-04T03:09:59.314Z,2.97
2022-12-04T03:12:32.246Z,2.87
2022-12-04T03:15:07.218Z,2.97
2022-12-04T03:17:41.701Z,2.95
2022-12-04T03:20:14.879Z,2.93
2022-12-04T03:22:50.541Z,2.90
2022-12-04T03:25:19.130Z,2.84
2022-12-04T03:27:55.782Z,2.76
2022-12-04T03:30:25.954Z,2.75
2022-12-04T03:33:00.012Z,2.71
2022-12-04T03:35:34.536Z,2.71
2022-12-04T03:38:11.926Z,2.69
2022-12-04T03:40:45.226Z,2.63
2022-12-04T03:43:18.197Z,2.65
2022-12-04T03:45:53.111Z,2.67
2022-12-04T03:48:25.251Z,2.68
2022-12-04T03:51:00.394Z,2.61
2022-12-04T03:53:35.081Z,2.66
2022-12-04T03:56:11.653Z,2.66
2022-12-04T03:58:45.979Z,2.60
2022-12-04T04:01:20.550Z,2.67
2022-12-04T04:03:53.345Z,2.67
2022-12-04T04:06:26.518Z,2.67
2022-12-04T04:09:01.515Z,2.67
2022-12-04T04:11:35.785Z,2.58
2022-12-04T04:14:25.196Z,2.57
2022-12-04T04:17:22.542Z,2.60
2022-12-04T04:20:14.517Z,2.66
2022-12-04T04:23:00.615Z,2.65
2022-12-04T04:25:30.290Z,2.55
2022-12-04T04:28:00.228Z,2.65
2022-12-04T04:30:30.755Z,2.63
2022-12-04T04:33:06.988Z,2.62
2022-12-04T04:35:43.379Z,2.63
2022-12-04T04:38:18.906Z,2.60
2022-12-04T04:40:55.676Z,2.50
2022-12-04T04:43:30.810Z,2.60
2022-12-04T04:46:04.637Z,2.60
2022-12-04T04:48:39.081Z,2.55
2022-12-04T04:51:08.116Z,2.46
2022-12-04T04:53:42.564Z,2.56
2022-12-04T04:56:11.482Z,2.52
2022-12-04T04:58:40.111Z,2.55
2022-12-04T05:01:11.505Z,2.53
2022-12-04T05:03:42.587Z,2.58
2022-12-04T05:06:11.465Z,2.57
2022-12-04T05:08:39.976Z,2.51
2022-12-04T05:11:12.216Z,2.60
2022-12-04T05:13:40.700Z,2.62
2022-12-04T05:16:12.141Z,2.47
2022-12-04T05:19:02.683Z,2.61
2022-12-04T05:21:30.257Z,2.60
2022-12-04T05:23:58.633Z,2.60
2022-12-04T05:26:27.218Z,2.57
2022-12-04T05:28:55.651Z,2.56
2022-12-04T05:31:24.149Z,2.43
2022-12-04T05:33:54.006Z,2.53
2022-12-04T05:36:22.436Z,2.49
2022-12-04T05:38:50.877Z,2.51
2022-12-04T05:41:19.298Z,2.51
2022-12-04T05:43:47.728Z,2.54
2022-12-04T05:46:16.170Z,2.54
2022-12-04T05:48:44.792Z,2.48
2022-12-04T05:51:14.573Z,2.54
2022-12-04T05:53:42.953Z,2.54
2022-12-04T05:56:12.785Z,2.43
2022-12-04T05:58:41.340Z,2.56
2022-12-04T06:01:12.070Z,2.57
2022-12-04T06:03:40.500Z,2.57
2022-12-04T06:06:20.753Z,2.58
2022-12-04T06:08:50.155Z,2.56
2022-12-04T06:11:21.663Z,2.58
2022-12-04T06:13:50.458Z,2.58
2022-12-04T06:16:21.373Z,2.55
2022-12-04T06:18:52.235Z,2.55
2022-12-04T06:21:23.685Z,2.55
2022-12-04T06:23:53.266Z,2.52
2022-12-04T06:26:22.512Z,2.44
2022-12-04T06:28:50.986Z,2.44
2022-12-04T06:31:20.388Z,2.55
2022-12-04T06:33:48.974Z,2.55
2022-12-04T06:36:19.587Z,2.54
2022-12-04T06:38:50.317Z,2.54
2022-12-04T06:41:20.703Z,2.57
2022-12-04T06:43:50.981Z,2.58
2022-12-04T06:46:21.377Z,2.57
2022-12-04T06:48:50.365Z,2.58
2022-12-04T06:51:21.738Z,2.58
2022-12-04T06:53:52.182Z,2.58
2022-12-04T06:56:23.415Z,2.61
2022-12-04T06:58:54.448Z,2.63
2022-12-04T07:01:25.045Z,2.63
2022-12-04T07:03:53.684Z,2.64
2022-12-04T07:06:24.265Z,2.65
2022-12-04T07:08:55.881Z,2.63
2022-12-04T07:11:25.064Z,2.65
2022-12-04T07:13:53.742Z,2.61
2022-12-04T07:16:24.013Z,2.64
2022-12-04T07:18:54.161Z,2.75
2022-12-04T07:21:23.736Z,2.59
2022-12-04T07:23:55.304Z,2.73
2022-12-04T07:26:24.035Z,2.64
2022-12-04T07:28:52.566Z,2.75
2022-12-04T07:31:23.101Z,2.78
2022-12-04T07:33:53.613Z,2.79
2022-12-04T07:36:22.938Z,2.78
2022-12-04T07:38:52.059Z,2.73
2022-12-04T07:41:22.211Z,2.73
2022-12-04T07:43:50.603Z,2.84
2022-12-04T07:46:22.077Z,2.78
2022-12-04T07:48:50.748Z,2.89
2022-12-04T07:51:21.833Z,2.94
2022-12-04T07:53:50.791Z,3.00
2022-12-04T07:56:20.289Z,3.03
2022-12-04T07:58:50.052Z,3.08
2022-12-04T08:01:20.396Z,3.12
2022-12-04T08:03:50.884Z,3.14
2022-12-04T08:06:20.119Z,3.20
2022-12-04T08:08:49.275Z,3.24
2022-12-04T08:11:20.299Z,3.26
2022-12-04T08:13:50.707Z,3.30
2022-12-04T08:16:19.178Z,3.33
2022-12-04T08:18:48.795Z,3.35
2022-12-04T08:21:20.822Z,3.39
2022-12-04T08:23:51.144Z,3.43
2022-12-04T08:26:20.732Z,3.48
2022-12-04T08:28:51.145Z,3.53
2022-12-04T08:31:21.903Z,3.57
2022-12-04T08:33:52.150Z,3.62
2022-12-04T08:36:22.633Z,3.66
2022-12-04T08:38:51.228Z,3.70
2022-12-04T08:41:24.277Z,3.61
2022-12-04T08:43:56.377Z,3.78
2022-12-04T08:46:27.337Z,3.80
2022-12-04T08:48:56.324Z,3.87
2022-12-04T08:51:27.216Z,3.92
2022-12-04T08:53:57.000Z,3.98
2022-12-04T08:56:26.424Z,4.05
2022-12-04T08:58:57.345Z,4.13
2022-12-04T09:01:27.295Z,4.21
2022-12-04T09:03:56.108Z,4.27
2022-12-04T09:06:25.019Z,4.32
2022-12-04T09:08:54.931Z,4.40
2022-12-04T09:11:25.062Z,4.37
2022-12-04T09:13:53.745Z,4.43
2022-12-04T09:16:26.142Z,4.65
2022-12-04T09:18:54.733Z,4.69
2022-12-04T09:21:24.886Z,4.70
2022-12-04T09:23:53.395Z,4.80
2022-12-04T09:26:23.940Z,4.89
2022-12-04T09:28:53.553Z,4.94
2022-12-04T09:31:24.925Z,4.99
2022-12-04T09:33:53.978Z,5.07
2022-12-04T09:36:22.629Z,5.09
2022-12-04T09:38:53.111Z,5.20
2022-12-04T09:41:33.336Z,5.25
2022-12-04T09:44:06.152Z,5.30
2022-12-04T09:46:39.606Z,5.28
2022-12-04T09:49:15.420Z,5.40
2022-12-04T09:51:44.548Z,5.45
2022-12-04T09:54:17.275Z,5.47
2022-12-04T09:56:48.456Z,5.54
2022-12-04T09:59:22.336Z,5.57
2022-12-04T10:01:57.957Z,5.61
2022-12-04T10:04:26.783Z,5.66
2022-12-04T10:07:02.262Z,5.69
2022-12-04T10:09:40.521Z,5.73
2022-12-04T10:12:22.541Z,5.75
2022-12-04T10:15:05.785Z,5.80
2022-12-04T10:17:52.342Z,5.86
2022-12-04T10:20:40.147Z,5.92
2022-12-04T10:23:21.701Z,5.95
2022-12-04T10:25:51.981Z,5.88
2022-12-04T10:28:27.873Z,5.96
2022-12-04T10:31:01.153Z,6.08
2022-12-04T10:33:38.481Z,6.12
2022-12-04T10:36:12.006Z,6.16
2022-12-04T10:38:46.624Z,6.22
2022-12-04T10:41:24.760Z,6.25
2022-12-04T10:43:53.430Z,6.34
2022-12-04T10:46:26.009Z,6.32
2022-12-04T10:48:59.519Z,6.47
2022-12-04T10:51:27.990Z,6.41
2022-12-04T10:53:58.850Z,6.64
2022-12-04T10:56:27.578Z,6.64
2022-12-04T10:58:59.429Z,6.70
2022-12-04T11:01:28.893Z,6.72
2022-12-04T11:04:02.241Z,6.83
2022-12-04T11:06:31.873Z,6.92
2022-12-04T11:09:01.484Z,6.98
2022-12-04T11:11:32.973Z,7.05
2022-12-04T11:14:07.247Z,7.12
2022-12-04T11:16:39.813Z,7.02
2022-12-04T11:19:24.845Z,7.21
2022-12-04T11:21:54.387Z,7.27
2022-12-04T11:24:25.180Z,7.31
2022-12-04T11:26:54.083Z,7.39
2022-12-04T11:29:27.891Z,7.47
2022-12-04T11:32:00.232Z,7.52
2022-12-04T11:34:38.358Z,7.52
2022-12-04T11:37:08.376Z,7.55
2022-12-04T11:39:40.549Z,7.54
2022-12-04T11:42:18.782Z,7.63
2022-12-04T11:44:56.458Z,7.65
2022-12-04T11:47:28.217Z,7.56
2022-12-04T11:50:14.257Z,7.66
2022-12-04T11:53:00.305Z,7.68
2022-12-04T11:55:39.411Z,7.56
2022-12-04T11:58:25.024Z,7.67
2022-12-04T12:01:11.469Z,7.68
2022-12-04T12:03:45.342Z,7.67
2022-12-04T12:06:34.672Z,7.65
2022-12-04T12:09:14.105Z,7.66
2022-12-04T12:11:48.428Z,7.66
2022-12-04T12:14:24.624Z,7.67
2022-12-04T12:17:03.552Z,7.71
2022-12-04T12:20:06.777Z,7.68
2022-12-04T12:23:09.778Z,7.73
2022-12-04T12:25:51.753Z,7.74
2022-12-04T12:28:36.421Z,7.74
2022-12-04T12:31:31.738Z,7.77
2022-12-04T12:34:05.557Z,7.85
2022-12-04T12:36:43.754Z,7.87
2022-12-04T12:39:20.667Z,7.91
2022-12-04T12:41:53.221Z,7.97
2022-12-04T12:44:26.950Z,8.05
2022-12-04T12:47:00.191Z,8.13
2022-12-04T12:49:32.497Z,8.15
2022-12-04T12:52:06.666Z,8.26
2022-12-04T12:54:45.536Z,8.33
2022-12-04T12:57:20.047Z,8.32
2022-12-04T12:59:53.113Z,8.42
2022-12-04T13:02:28.752Z,8.41
2022-12-04T13:05:01.530Z,8.39
2022-12-04T13:07:40.845Z,8.41
2022-12-04T13:10:16.462Z,8.39
2022-12-04T13:12:48.999Z,8.38
2022-12-04T13:15:18.624Z,8.39
2022-12-04T13:17:50.488Z,8.38
2022-12-04T13:20:23.949Z,8.37
2022-12-04T13:23:02.778Z,8.20
2022-12-04T13:25:43.923Z,8.30
2022-12-04T13:28:29.575Z,8.27
2022-12-04T13:31:04.718Z,8.22
2022-12-04T13:33:56.053Z,8.18
2022-12-04T13:36:47.543Z,8.16
2022-12-04T13:39:52.086Z,8.14
2022-12-04T13:42:27.371Z,8.03
2022-12-04T13:44:58.731Z,7.91
2022-12-04T13:47:30.018Z,7.89
2022-12-04T13:50:10.720Z,7.85
2022-12-04T13:52:41.502Z,7.78
2022-12-04T13:55:28.779Z,7.66
2022-12-04T13:58:01.792Z,7.65
2022-12-04T14:00:32.961Z,7.55
2022-12-04T14:03:05.307Z,7.50
2022-12-04T14:05:42.368Z,7.47
2022-12-04T14:08:25.642Z,7.28
2022-12-04T14:11:03.958Z,7.28
2022-12-04T14:13:44.788Z,7.28
2022-12-04T14:16:25.831Z,7.26
2022-12-04T14:18:56.727Z,7.20
2022-12-04T14:21:26.064Z,7.16
2022-12-04T14:23:55.122Z,7.08
2022-12-04T14:26:48.890Z,7.03
2022-12-04T14:29:36.247Z,6.93
2022-12-04T14:32:11.133Z,6.84
2022-12-04T14:34:40.137Z,6.83
2022-12-04T14:37:08.825Z,6.67
2022-12-04T14:39:43.694Z,6.70
2022-12-04T14:42:16.155Z,6.67
2022-12-04T14:44:48.149Z,6.71
2022-12-04T14:47:25.181Z,6.71
2022-12-04T14:50:10.590Z,6.58
2022-12-04T14:52:45.108Z,6.49
2022-12-04T14:55:24.015Z,6.52
2022-12-04T14:57:57.041Z,6.47
2022-12-04T15:00:27.998Z,6.36
2022-12-04T15:03:00.349Z,6.32
2022-12-04T15:05:31.807Z,6.19
2022-12-04T15:08:03.261Z,6.23
2022-12-04T15:10:51.768Z,6.17
2022-12-04T15:13:28.138Z,6.13
2022-12-04T15:15:58.375Z,6.19
2022-12-04T15:18:26.900Z,6.14
2022-12-04T15:20:59.876Z,6.04
2022-12-04T15:23:31.491Z,6.09
2022-12-04T15:26:03.598Z,6.08
2022-12-04T15:28:36.746Z,6.05
2022-12-04T15:31:12.968Z,6.00
2022-12-04T15:33:42.878Z,5.96
2022-12-04T15:36:21.550Z,5.80
2022-12-04T15:38:51.906Z,5.75
2022-12-04T15:41:33.344Z,5.61
2022-12-04T15:44:02.428Z,5.66
2022-12-04T15:46:35.800Z,5.62
2022-12-04T15:49:09.708Z,5.59
2022-12-04T15:51:38.209Z,5.59
2022-12-04T15:54:07.156Z,5.53
2022-12-04T15:56:35.664Z,5.55
2022-12-04T15:59:04.209Z,5.51
2022-12-04T16:01:41.924Z,5.48
2022-12-04T16:04:22.656Z,5.52
2022-12-04T16:06:54.073Z,5.27
2022-12-04T16:09:24.850Z,5.25
2022-12-04T16:12:01.676Z,5.24
2022-12-04T16:14:30.298Z,5.08
2022-12-04T16:17:06.287Z,5.10
2022-12-04T16:19:38.918Z,5.08
2022-12-04T16:22:18.242Z,5.04
2022-12-04T16:24:48.615Z,4.99
2022-12-04T16:27:20.260Z,4.87
2022-12-04T16:29:48.722Z,4.85
2022-12-04T16:32:21.405Z,4.77
2022-12-04T16:34:50.691Z,4.75
2022-12-04T16:37:20.867Z,4.65
2022-12-04T16:39:49.628Z,4.52
2022-12-04T16:42:21.002Z,4.57
2022-12-04T16:44:49.750Z,4.50
2022-12-04T16:47:21.036Z,4.48
2022-12-04T16:49:51.642Z,4.50
2022-12-04T16:52:21.125Z,4.42
2022-12-04T16:54:50.125Z,4.30
2022-12-04T16:57:18.546Z,4.20
2022-12-04T16:59:46.918Z,4.19
2022-12-04T17:02:26.637Z,4.24
2022-12-04T17:04:57.782Z,4.09
2022-12-04T17:07:26.826Z,4.01
2022-12-04T17:09:55.204Z,3.94
2022-12-04T17:12:23.682Z,3.91
2022-12-04T17:14:52.271Z,3.82
2022-12-04T17:17:22.304Z,3.78
2022-12-04T17:19:50.707Z,3.83
2022-12-04T17:22:21.250Z,3.69
2022-12-04T17:24:55.754Z,3.76
2022-12-04T17:27:25.556Z,3.67
2022-12-04T17:29:54.090Z,3.78
2022-12-04T17:32:24.045Z,3.73
2022-12-04T17:34:55.192Z,3.67
2022-12-04T17:37:23.795Z,3.72
2022-12-04T17:39:52.242Z,3.67
2022-12-04T17:42:20.755Z,3.73
2022-12-04T17:44:49.190Z,3.76
2022-12-04T17:47:17.672Z,3.70
2022-12-04T17:49:47.669Z,3.71
2022-12-04T17:52:16.635Z,3.66
2022-12-04T17:54:45.039Z,3.68
2022-12-04T17:57:13.485Z,3.61
2022-12-04T17:59:42.252Z,3.57
2022-12-04T18:02:11.415Z,3.52
2022-12-04T18:04:39.898Z,3.56
2022-12-04T18:07:10.268Z,3.47
2022-12-04T18:09:39.184Z,3.59
2022-12-04T18:12:07.815Z,3.58
2022-12-04T18:14:37.310Z,3.53
2022-12-04T18:17:05.862Z,3.48
2022-12-04T18:19:34.526Z,3.50
2022-12-04T18:22:03.090Z,3.48
2022-12-04T18:24:32.917Z,3.49
2022-12-04T18:27:01.459Z,3.45
2022-12-04T18:29:29.873Z,3.49
2022-12-04T18:31:58.492Z,3.37
2022-12-04T18:34:30.074Z,3.39
2022-12-04T18:36:58.608Z,3.36
2022-12-04T18:39:27.576Z,3.31
2022-12-04T18:41:57.916Z,3.37
2022-12-04T18:44:26.818Z,3.33
2022-12-04T18:46:55.223Z,3.23
2022-12-04T18:49:23.700Z,3.39
2022-12-04T18:51:55.068Z,3.41
2022-12-04T18:54:25.602Z,3.38
2022-12-04T18:56:54.831Z,3.43
2022-12-04T18:59:27.143Z,3.44
2022-12-04T19:01:56.629Z,3.42
2022-12-04T19:04:26.448Z,3.46
2022-12-04T19:06:56.431Z,3.49
2022-12-04T19:12:15.876Z,3.35
2022-12-04T19:14:45.769Z,3.49
2022-12-04T19:17:15.325Z,3.50
2022-12-04T19:19:43.818Z,3.48
2022-12-04T19:22:12.275Z,3.50
2022-12-04T19:24:40.877Z,3.41
2022-12-04T19:27:12.184Z,3.52
2022-12-04T19:29:41.136Z,3.53
2022-12-04T19:32:12.620Z,3.57
2022-12-04T19:34:41.605Z,3.63
2022-12-04T19:37:09.951Z,3.58
2022-12-04T19:39:38.560Z,3.58
2022-12-04T19:42:07.683Z,3.55
2022-12-04T19:44:51.724Z,3.58
2022-12-04T19:47:21.589Z,3.50
2022-12-04T19:49:51.219Z,3.55
2022-12-04T19:52:19.687Z,3.56
2022-12-04T19:54:48.157Z,3.60
2022-12-04T19:57:17.101Z,3.60
2022-12-04T19:59:46.790Z,3.60
2022-12-04T20:02:15.825Z,3.61
2022-12-04T20:04:45.959Z,3.58
2022-12-04T20:07:14.411Z,3.58
2022-12-04T20:09:47.356Z,3.45
2022-12-04T20:12:19.447Z,3.58
2022-12-04T20:14:49.073Z,3.59
2022-12-04T20:17:17.538Z,3.57
2022-12-04T20:19:47.370Z,3.58
2022-12-04T20:22:16.112Z,3.60
2022-12-04T20:24:44.990Z,3.58
2022-12-04T20:27:13.643Z,3.64
2022-12-04T20:29:42.047Z,3.66
2022-12-04T20:32:10.722Z,3.62
2022-12-04T20:34:43.545Z,3.57
2022-12-04T20:37:13.805Z,3.68
2022-12-04T20:39:42.263Z,3.65
2022-12-04T20:42:10.890Z,3.62
2022-12-04T20:44:39.600Z,3.63
2022-12-04T20:47:08.177Z,3.58
2022-12-04T20:49:37.254Z,3.62
2022-12-04T20:52:06.739Z,3.42
2022-12-04T20:54:41.345Z,3.59
2022-12-04T20:57:10.754Z,3.52
2022-12-04T20:59:39.664Z,3.57
2022-12-04T21:02:08.731Z,3.58
2022-12-04T21:04:38.861Z,3.56
2022-12-04T21:07:07.550Z,3.61
2022-12-04T21:09:37.390Z,3.60
2022-12-04T21:12:32.467Z,3.61
2022-12-04T21:15:17.982Z,3.62
2022-12-04T21:17:47.371Z,3.59
2022-12-04T21:20:16.562Z,3.63
2022-12-04T21:22:45.754Z,3.65
2022-12-04T21:25:15.976Z,3.64
2022-12-04T21:27:47.123Z,3.64
2022-12-04T21:30:16.568Z,3.62
2022-12-04T21:32:44.939Z,3.48
2022-12-04T21:35:13.339Z,3.63
2022-12-04T21:37:42.259Z,3.65
2022-12-04T21:40:12.203Z,3.65
2022-12-04T21:42:44.506Z,3.65
2022-12-04T21:45:13.451Z,3.65
2022-12-04T21:47:43.071Z,3.63
2022-12-04T21:50:12.669Z,3.64
2022-12-04T21:52:41.317Z,3.65
2022-12-04T21:55:10.571Z,3.61
2022-12-04T21:57:39.725Z,3.67
2022-12-04T22:00:11.296Z,3.68
2022-12-04T22:02:40.924Z,3.69
2022-12-04T22:05:10.257Z,3.67
2022-12-04T22:07:40.032Z,3.67
2022-12-04T22:10:11.084Z,3.67
2022-12-04T22:12:49.488Z,3.64
2022-12-04T22:15:20.312Z,3.67
2022-12-04T22:17:49.130Z,3.66
2022-12-04T22:20:18.550Z,3.64
2022-12-04T22:22:47.300Z,3.64
2022-12-04T22:25:16.946Z,3.65
2022-12-04T22:27:45.584Z,3.64
2022-12-04T22:30:15.248Z,3.62
2022-12-04T22:32:46.160Z,3.64
2022-12-04T22:35:15.075Z,3.67
2022-12-04T22:37:44.657Z,3.60
2022-12-04T22:40:15.377Z,3.65
2022-12-04T22:42:44.055Z,3.66
2022-12-04T22:45:13.269Z,3.64
2022-12-04T22:47:43.098Z,3.64
2022-12-04T22:50:13.567Z,3.64
2022-12-04T22:52:43.096Z,3.63
2022-12-04T22:55:11.607Z,3.68
2022-12-04T22:57:40.456Z,3.71
2022-12-04T23:00:11.402Z,3.72
2022-12-04T23:02:42.776Z,3.73
2022-12-04T23:05:13.438Z,3.71
2022-12-04T23:07:42.723Z,3.70
2022-12-04T23:10:11.331Z,3.64
2022-12-04T23:12:39.847Z,3.60
2022-12-04T23:15:09.600Z,3.64
2022-12-04T23:17:38.012Z,3.64
2022-12-04T23:20:07.613Z,3.64
2022-12-04T23:22:38.017Z,3.66
2022-12-04T23:25:07.623Z,3.64
2022-12-04T23:27:36.248Z,3.66
2022-12-04T23:30:05.936Z,3.66
2022-12-04T23:32:35.641Z,3.67
2022-12-04T23:35:05.116Z,3.69
2022-12-04T23:37:34.271Z,3.51
2022-12-04T23:40:05.035Z,3.62
2022-12-04T23:42:34.239Z,3.63
2022-12-04T23:45:03.732Z,3.63
2022-12-04T23:47:32.842Z,3.59
2022-12-04T23:50:01.510Z,3.62
2022-12-04T23:52:29.937Z,3.66
2022-12-04T23:54:58.398Z,3.65
2022-12-04T23:57:30.153Z,3.63
2022-12-04T23:59:58.654Z,3.68
